KSPA/SPA METAR and TAF weather

Enter ICAO airport designator
Station Type Date Time Source
KSPA METAR 2021/09/27 06:15 UTC NOAA

KSPA 270615Z AUTO 00000KT 10SM CLR 14/13 A3012 RMK AO2


Station Type Date Time Source
KSPA Decoded METAR 2021/09/27 06:15 UTC NOAA

Spartanburg Memorial, SC, United States (KSPA) 34-55N 081-57W
Sep 27, 2021 - 02:15 AM EDT / 2021.09.27 0615 UTC
Wind: Calm:0
Visibility: 10 mile(s):0
Sky conditions: clear
Temperature: 57 F (14 C)
Dew Point: 55 F (13 C)
Relative Humidity: 93%
Pressure (altimeter): 30.12 in. Hg (1019 hPa)
ob: KSPA 270615Z AUTO 00000KT 10SM CLR 14/13 A3012 RMK AO2
cycle: 6

Station Type Date Time Source
KSPA TAF UTC NOAA

Error!

Example: see airport list